Time;durP1;ratioP1;P1;durP2;ratioP2;P2;SDS_P1;SDS_P2;PMS_P1;PMS_P2;Temp;Humidity;BMP_temperature;BMP_pressure;BME280_temperature;BME280_humidity;BME280_pressure;Samples;Min_cycle;Max_cycle;Signal;HPM_P1;HPM_P2
2021/01/21 00:01:55;;;;;;;5.22;2.10;;;;;;;;;;5030477;28;20116;-75
2021/01/21 00:04:21;;;;;;;5.00;1.90;;;;;;;;;;5028646;28;20538;-73
2021/01/21 00:06:47;;;;;;;5.57;2.05;;;;;;;;;;5028545;28;20132;-77
2021/01/21 00:09:16;;;;;;;9.07;2.00;;;;;;;;;;5029774;28;20033;-73
2021/01/21 00:11:42;;;;;;;5.25;1.50;;;;;;;;;;5030387;28;20041;-75
2021/01/21 00:14:08;;;;;;;9.43;2.88;;;;;;;;;;5031128;28;20486;-78
2021/01/21 00:16:34;;;;;;;3.78;1.88;;;;;;;;;;5028053;28;20025;-76
2021/01/21 00:19:00;;;;;;;6.97;2.15;;;;;;;;;;5029716;28;20513;-79
2021/01/21 00:21:26;;;;;;;6.03;2.50;;;;;;;;;;5030692;28;20028;-75
2021/01/21 00:23:52;;;;;;;7.53;3.03;;;;;;;;;;5031454;28;20071;-78
2021/01/21 00:26:18;;;;;;;6.30;2.53;;;;;;;;;;5027060;28;20029;-75
2021/01/21 00:28:44;;;;;;;6.43;2.20;;;;;;;;;;5029898;28;20064;-75
2021/01/21 00:31:10;;;;;;;4.63;1.85;;;;;;;;;;5029640;28;20029;-73
2021/01/21 00:33:36;;;;;;;7.18;1.90;;;;;;;;;;5028990;28;20025;-75
2021/01/21 00:36:02;;;;;;;5.00;2.25;;;;;;;;;;5027476;28;20087;-74
2021/01/21 00:38:28;;;;;;;5.88;2.20;;;;;;;;;;5030594;28;20029;-74
2021/01/21 00:40:55;;;;;;;4.70;1.90;;;;;;;;;;5029688;28;20032;-73
2021/01/21 00:43:21;;;;;;;8.40;2.88;;;;;;;;;;5029143;28;20029;-74
2021/01/21 00:45:50;;;;;;;6.32;2.35;;;;;;;;;;5027531;28;20044;-73
2021/01/21 00:48:16;;;;;;;9.43;2.10;;;;;;;;;;5029278;28;20029;-76
2021/01/21 00:50:42;;;;;;;9.43;2.65;;;;;;;;;;5028697;28;20160;-79
2021/01/21 00:53:08;;;;;;;9.57;2.15;;;;;;;;;;5029829;28;20029;-79
2021/01/21 00:55:34;;;;;;;6.15;2.95;;;;;;;;;;5026976;28;20328;-76
2021/01/21 00:58:00;;;;;;;5.43;2.15;;;;;;;;;;5029134;28;20029;-72
2021/01/21 01:00:26;;;;;;;9.27;3.38;;;;;;;;;;5030941;28;20045;-76
2021/01/21 01:02:52;;;;;;;4.28;2.03;;;;;;;;;;5029914;28;20048;-75
2021/01/21 01:05:18;;;;;;;6.40;2.38;;;;;;;;;;5027959;28;20033;-73
2021/01/21 01:07:44;;;;;;;7.97;3.17;;;;;;;;;;5030257;28;21123;-76
2021/01/21 01:10:11;;;;;;;6.95;2.20;;;;;;;;;;5026618;28;20437;-73
2021/01/21 01:12:37;;;;;;;6.30;2.13;;;;;;;;;;5030729;28;20405;-70
2021/01/21 01:15:07;;;;;;;5.90;2.60;;;;;;;;;;5029361;28;20114;-72
2021/01/21 01:17:33;;;;;;;4.25;1.58;;;;;;;;;;5018570;28;20017;-75
2021/01/21 01:19:59;;;;;;;7.88;2.45;;;;;;;;;;5027386;28;20116;-72
2021/01/21 01:22:25;;;;;;;8.32;2.72;;;;;;;;;;5030836;28;20049;-72
2021/01/21 01:24:51;;;;;;;9.40;3.20;;;;;;;;;;5029065;28;20667;-73
2021/01/21 01:27:17;;;;;;;10.05;2.65;;;;;;;;;;5027597;28;20021;-72
2021/01/21 01:29:44;;;;;;;8.20;2.67;;;;;;;;;;5027968;28;20021;-72
2021/01/21 01:32:11;;;;;;;3.28;1.27;;;;;;;;;;5030839;28;20477;-74
2021/01/21 01:34:37;;;;;;;6.53;1.85;;;;;;;;;;5029726;28;20393;-74
2021/01/21 01:37:04;;;;;;;6.95;2.70;;;;;;;;;;5026249;28;20059;-74
2021/01/21 01:39:30;;;;;;;7.80;2.70;;;;;;;;;;5029888;28;20505;-70
2021/01/21 01:41:56;;;;;;;6.60;2.35;;;;;;;;;;5028352;28;20224;-71
2021/01/21 01:44:22;;;;;;;7.25;2.55;;;;;;;;;;5028811;28;20026;-71
2021/01/21 01:46:48;;;;;;;7.43;2.70;;;;;;;;;;5026834;28;20049;-75
2021/01/21 01:49:14;;;;;;;4.75;2.30;;;;;;;;;;5028975;28;20074;-72
2021/01/21 01:51:43;;;;;;;7.63;2.92;;;;;;;;;;5030251;28;20025;-70
2021/01/21 01:54:10;;;;;;;5.65;2.45;;;;;;;;;;5028221;28;20025;-76
2021/01/21 01:56:37;;;;;;;11.07;3.55;;;;;;;;;;5025674;28;20029;-73
2021/01/21 01:59:03;;;;;;;7.80;2.83;;;;;;;;;;5027492;28;20029;-71
2021/01/21 02:01:30;;;;;;;5.82;2.40;;;;;;;;;;5027486;28;20501;-72
2021/01/21 02:03:56;;;;;;;8.73;2.47;;;;;;;;;;5027319;28;20434;-80
2021/01/21 02:06:22;;;;;;;13.93;2.45;;;;;;;;;;5023726;28;20056;-71
2021/01/21 02:08:48;;;;;;;10.32;2.40;;;;;;;;;;5029218;28;20037;-71
2021/01/21 02:11:34;;;;;;;6.43;2.63;;;;;;;;;;5027099;28;20117;-78
2021/01/21 02:14:02;;;;;;;7.03;2.20;;;;;;;;;;5026789;28;20025;-78
2021/01/21 02:16:28;;;;;;;9.75;2.95;;;;;;;;;;5027435;28;20054;-80
2021/01/21 02:18:57;;;;;;;9.13;2.70;;;;;;;;;;5028611;28;20525;-76
2021/01/21 02:21:42;;;;;;;9.80;3.28;;;;;;;;;;5029259;28;20037;-77
2021/01/21 02:24:10;;;;;;;15.93;4.15;;;;;;;;;;5021613;28;20132;-79
2021/01/21 02:26:46;;;;;;;14.18;4.28;;;;;;;;;;5025061;28;20104;-75
2021/01/21 02:29:15;;;;;;;20.88;4.00;;;;;;;;;;5028948;28;20038;-74
2021/01/21 02:32:02;;;;;;;23.02;3.65;;;;;;;;;;5028114;28;20044;-75
2021/01/21 02:34:32;;;;;;;26.20;4.78;;;;;;;;;;5023161;28;20037;-75
2021/01/21 02:36:59;;;;;;;32.17;4.93;;;;;;;;;;5024806;28;20036;-74
2021/01/21 02:39:26;;;;;;;26.75;4.40;;;;;;;;;;5027520;28;20064;-76
2021/01/21 02:41:52;;;;;;;31.83;5.75;;;;;;;;;;5024105;28;20111;-74
2021/01/21 02:44:18;;;;;;;19.30;2.35;;;;;;;;;;5028485;28;20033;-80
2021/01/21 02:46:45;;;;;;;15.32;2.72;;;;;;;;;;5026323;28;20030;-79
2021/01/21 02:49:12;;;;;;;9.85;1.80;;;;;;;;;;5027937;28;20497;-76
2021/01/21 02:51:48;;;;;;;22.95;3.05;;;;;;;;;;5027943;28;20009;-78
2021/01/21 02:54:20;;;;;;;23.15;3.90;;;;;;;;;;5028809;28;20455;-80
2021/01/21 02:56:46;;;;;;;;;;;;;;;;;;5027091;28;20022;-80
2021/01/21 02:59:15;;;;;;;14.00;2.72;;;;;;;;;;5028200;28;20000;-80
2021/01/21 03:01:42;;;;;;;33.92;4.95;;;;;;;;;;5028196;28;20532;-77
2021/01/21 03:04:09;;;;;;;23.48;5.22;;;;;;;;;;5028626;28;20056;-79
2021/01/21 03:06:35;;;;;;;18.80;3.80;;;;;;;;;;5030800;28;20076;-78
2021/01/21 03:09:01;;;;;;;37.42;4.70;;;;;;;;;;5030864;28;20116;-78
2021/01/21 03:11:27;;;;;;;22.50;3.60;;;;;;;;;;5030879;28;20018;-77
2021/01/21 03:13:54;;;;;;;25.02;3.75;;;;;;;;;;5032309;28;20091;-78
2021/01/21 03:16:20;;;;;;;33.70;5.50;;;;;;;;;;5030030;28;20030;-81
2021/01/21 03:18:50;;;;;;;22.45;4.07;;;;;;;;;;5030520;28;20017;-73
2021/01/21 03:21:16;;;;;;;22.45;3.83;;;;;;;;;;5031707;28;20525;-78
2021/01/21 03:23:42;;;;;;;30.95;6.03;;;;;;;;;;5032730;28;20100;-70
2021/01/21 03:26:12;;;;;;;29.58;4.40;;;;;;;;;;5029562;28;20037;-78
2021/01/21 03:28:38;;;;;;;40.35;4.03;;;;;;;;;;5031729;28;20022;-79
2021/01/21 03:31:04;;;;;;;27.83;4.85;;;;;;;;;;5032497;28;20109;-80
2021/01/21 03:33:30;;;;;;;20.10;3.25;;;;;;;;;;5032465;28;20079;-79
2021/01/21 03:35:56;;;;;;;33.25;4.22;;;;;;;;;;5028338;28;20021;-77
2021/01/21 03:38:22;;;;;;;20.88;3.65;;;;;;;;;;5031174;28;20021;-76
2021/01/21 03:40:48;;;;;;;26.25;5.15;;;;;;;;;;5032137;28;20037;-79
2021/01/21 03:43:15;;;;;;;16.58;2.92;;;;;;;;;;5030949;28;20040;-77
2021/01/21 03:45:41;;;;;;;28.50;3.63;;;;;;;;;;5028960;28;20017;-78
2021/01/21 03:48:07;;;;;;;20.23;3.67;;;;;;;;;;5032638;28;20030;-79
2021/01/21 03:50:33;;;;;;;25.83;5.20;;;;;;;;;;5031539;28;20053;-80
2021/01/21 03:52:59;;;;;;;34.55;5.30;;;;;;;;;;5031672;28;20088;-77
2021/01/21 03:55:25;;;;;;;18.15;3.20;;;;;;;;;;5028393;28;20032;-77
2021/01/21 03:57:51;;;;;;;36.47;4.45;;;;;;;;;;5029358;28;20061;-81
2021/01/21 04:00:17;;;;;;;26.92;5.43;;;;;;;;;;5031361;28;20026;-76
2021/01/21 04:02:43;;;;;;;20.23;3.88;;;;;;;;;;5030384;28;20036;-76
2021/01/21 04:05:10;;;;;;;21.27;4.32;;;;;;;;;;5029444;28;20026;-82
2021/01/21 04:07:36;;;;;;;15.30;3.03;;;;;;;;;;5030119;28;20049;-77
2021/01/21 04:10:02;;;;;;;14.95;3.10;;;;;;;;;;5029756;28;20121;-75
2021/01/21 04:12:28;;;;;;;11.63;3.15;;;;;;;;;;5031957;28;20062;-77
2021/01/21 04:14:54;;;;;;;14.00;2.67;;;;;;;;;;5030283;28;20033;-77
2021/01/21 04:17:20;;;;;;;11.50;2.08;;;;;;;;;;5027035;28;20183;-78
2021/01/21 04:19:46;;;;;;;23.67;3.85;;;;;;;;;;5028031;28;20541;-78
2021/01/21 04:22:12;;;;;;;19.48;4.13;;;;;;;;;;5031596;28;20025;-77
2021/01/21 04:24:38;;;;;;;15.82;2.58;;;;;;;;;;5030912;28;20028;-76
2021/01/21 04:27:04;;;;;;;25.90;3.28;;;;;;;;;;5027060;28;20033;-81
2021/01/21 04:29:30;;;;;;;16.90;3.53;;;;;;;;;;5031884;28;20033;-80
2021/01/21 04:31:56;;;;;;;9.35;2.40;;;;;;;;;;5029974;28;20033;-77
2021/01/21 04:34:22;;;;;;;23.40;3.40;;;;;;;;;;5028942;28;20017;-76
2021/01/21 04:36:48;;;;;;;13.95;3.47;;;;;;;;;;5026106;28;20549;-78
2021/01/21 04:39:14;;;;;;;21.10;3.83;;;;;;;;;;5030190;28;20033;-77
2021/01/21 04:41:40;;;;;;;19.35;3.47;;;;;;;;;;5030764;28;20029;-80
2021/01/21 04:44:06;;;;;;;14.25;2.97;;;;;;;;;;5031455;28;20033;-78
2021/01/21 04:46:32;;;;;;;17.42;2.85;;;;;;;;;;5041638;28;20093;-75
2021/01/21 04:48:59;;;;;;;16.45;2.40;;;;;;;;;;5029162;28;20048;-77
2021/01/21 04:51:25;;;;;;;13.60;3.17;;;;;;;;;;5030892;28;20585;-78
2021/01/21 04:53:53;;;;;;;20.25;2.35;;;;;;;;;;5030146;28;20017;-79
2021/01/21 04:56:23;;;;;;;21.75;2.50;;;;;;;;;;5028004;28;20041;-83
2021/01/21 04:58:50;;;;;;;18.40;2.65;;;;;;;;;;5030677;28;20105;-78
2021/01/21 05:01:17;;;;;;;18.48;2.85;;;;;;;;;;5029428;28;20092;-80
2021/01/21 05:03:43;;;;;;;15.15;2.40;;;;;;;;;;5029807;28;20018;-77
2021/01/21 05:06:09;;;;;;;19.10;3.00;;;;;;;;;;5027576;28;20033;-77
2021/01/21 05:08:36;;;;;;;6.63;1.92;;;;;;;;;;5028194;28;20052;-77
2021/01/21 05:11:02;;;;;;;12.13;2.38;;;;;;;;;;5027960;28;20099;-83
2021/01/21 05:13:28;;;;;;;13.02;2.40;;;;;;;;;;5029402;28;20030;-76
2021/01/21 05:15:54;;;;;;;9.32;2.08;;;;;;;;;;5028515;28;20025;-79
2021/01/21 05:18:27;;;;;;;8.55;2.17;;;;;;;;;;5027595;28;20033;-78
2021/01/21 05:20:53;;;;;;;11.30;1.70;;;;;;;;;;5029814;28;20037;-82
2021/01/21 05:23:22;;;;;;;24.05;3.10;;;;;;;;;;5029484;28;20029;-80
2021/01/21 05:25:48;;;;;;;14.90;2.90;;;;;;;;;;5028650;28;20025;-77
2021/01/21 05:28:14;;;;;;;16.92;2.55;;;;;;;;;;5029480;28;20077;-76
2021/01/21 05:30:41;;;;;;;22.40;2.92;;;;;;;;;;5028038;28;20021;-77
2021/01/21 05:33:07;;;;;;;15.38;3.72;;;;;;;;;;5030450;28;20030;-76
2021/01/21 05:35:34;;;;;;;22.33;3.90;;;;;;;;;;5027238;28;20021;-80
2021/01/21 05:38:01;;;;;;;9.57;2.25;;;;;;;;;;5027960;28;20017;-77
2021/01/21 05:40:29;;;;;;;13.98;2.97;;;;;;;;;;5030681;28;20497;-79
2021/01/21 05:42:56;;;;;;;20.80;2.83;;;;;;;;;;5029294;28;20018;-76
2021/01/21 05:45:23;;;;;;;8.00;1.92;;;;;;;;;;5027337;28;20060;-80
2021/01/21 05:47:53;;;;;;;17.55;1.98;;;;;;;;;;5028116;28;20080;-77
2021/01/21 05:50:20;;;;;;;9.88;2.05;;;;;;;;;;5026244;28;20025;-80
2021/01/21 05:52:46;;;;;;;16.67;3.38;;;;;;;;;;5027628;28;20095;-75
2021/01/21 05:55:12;;;;;;;13.05;2.33;;;;;;;;;;5026036;28;20032;-75
2021/01/21 05:57:38;;;;;;;20.08;2.42;;;;;;;;;;5028825;28;20156;-75
2021/01/21 06:00:05;;;;;;;20.35;3.67;;;;;;;;;;5026122;28;20033;-75
2021/01/21 06:02:31;;;;;;;22.58;2.72;;;;;;;;;;5027803;28;20017;-76
2021/01/21 06:05:00;;;;;;;15.23;2.45;;;;;;;;;;5029045;28;20030;-76
2021/01/21 06:07:30;;;;;;;17.50;2.80;;;;;;;;;;5025110;28;20082;-79
2021/01/21 06:09:58;;;;;;;17.80;4.65;;;;;;;;;;5028504;28;20026;-75
2021/01/21 06:12:27;;;;;;;12.55;2.08;;;;;;;;;;5024955;28;20037;-75
2021/01/21 06:14:54;;;;;;;20.58;3.10;;;;;;;;;;5027564;28;20111;-77
2021/01/21 06:17:20;;;;;;;12.27;2.38;;;;;;;;;;5024780;28;20072;-75
2021/01/21 06:19:47;;;;;;;12.50;2.30;;;;;;;;;;5026620;28;20028;-75
2021/01/21 06:22:14;;;;;;;14.63;2.95;;;;;;;;;;5028783;28;20100;-76
2021/01/21 06:24:44;;;;;;;18.23;3.88;;;;;;;;;;5026890;28;20030;-74
2021/01/21 06:27:11;;;;;;;15.27;3.35;;;;;;;;;;5021738;28;20057;-77
2021/01/21 06:29:37;;;;;;;14.88;3.35;;;;;;;;;;5027079;28;20485;-76
2021/01/21 06:32:04;;;;;;;19.42;2.95;;;;;;;;;;5028736;28;20029;-74
2021/01/21 06:34:34;;;;;;;23.60;3.67;;;;;;;;;;5025423;28;20029;-75
2021/01/21 06:37:01;;;;;;;19.23;4.18;;;;;;;;;;5024395;28;20037;-76
2021/01/21 06:39:43;;;;;;;17.88;2.95;;;;;;;;;;5031293;28;20029;-77
2021/01/21 06:42:11;;;;;;;11.90;3.38;;;;;;;;;;5032566;28;20034;-75
2021/01/21 06:44:37;;;;;;;23.35;2.97;;;;;;;;;;5032352;28;20036;-74
2021/01/21 06:47:04;;;;;;;12.20;1.98;;;;;;;;;;5029416;28;20176;-75
2021/01/21 06:49:30;;;;;;;17.35;5.20;;;;;;;;;;5031192;28;20022;-78
2021/01/21 06:51:57;;;;;;;15.82;1.88;;;;;;;;;;5032723;28;20048;-76
2021/01/21 06:54:24;;;;;;;14.85;2.80;;;;;;;;;;5033587;28;20026;-75
2021/01/21 06:56:50;;;;;;;24.95;4.18;;;;;;;;;;5030836;28;20021;-75
2021/01/21 06:59:16;;;;;;;13.80;2.38;;;;;;;;;;5033353;28;20087;-77
2021/01/21 07:01:42;;;;;;;27.38;3.17;;;;;;;;;;5032792;28;20040;-79
2021/01/21 07:04:09;;;;;;;39.30;3.72;;;;;;;;;;5032219;28;20052;-76
2021/01/21 07:06:50;;;;;;;23.30;3.83;;;;;;;;;;5027493;28;20080;-75
2021/01/21 07:09:20;;;;;;;17.15;3.03;;;;;;;;;;5024901;28;20032;-76
2021/01/21 07:11:47;;;;;;;18.73;2.00;;;;;;;;;;5024538;28;20036;-76
2021/01/21 07:14:15;;;;;;;14.40;1.60;;;;;;;;;;5025625;28;20120;-76
2021/01/21 07:16:41;;;;;;;23.90;3.97;;;;;;;;;;5021422;28;20032;-75
2021/01/21 07:19:10;;;;;;;16.23;2.53;;;;;;;;;;5029744;28;20030;-76
2021/01/21 07:21:36;;;;;;;20.88;2.97;;;;;;;;;;5024954;28;20064;-74
2021/01/21 07:24:03;;;;;;;11.90;2.70;;;;;;;;;;5031606;28;20032;-76
2021/01/21 07:26:33;;;;;;;22.05;3.90;;;;;;;;;;5029575;28;20037;-75
2021/01/21 07:28:59;;;;;;;18.85;2.97;;;;;;;;;;5023849;28;20553;-77
2021/01/21 07:31:27;;;;;;;11.30;1.90;;;;;;;;;;5029140;28;20113;-75
2021/01/21 07:34:12;;;;;;;35.83;3.35;;;;;;;;;;5025717;28;20027;-76
2021/01/21 07:36:38;;;;;;;9.73;2.65;;;;;;;;;;5028284;28;20386;-77
2021/01/21 07:39:04;;;;;;;16.80;2.15;;;;;;;;;;5027987;28;20486;-76
2021/01/21 07:41:42;;;;;;;14.13;2.97;;;;;;;;;;5027704;28;20088;-76
2021/01/21 07:44:09;;;;;;;15.88;1.67;;;;;;;;;;5034903;28;20028;-77
2021/01/21 07:46:35;;;;;;;5.57;1.27;;;;;;;;;;5023706;28;20065;-75
2021/01/21 07:49:20;;;;;;;13.20;2.15;;;;;;;;;;5026195;28;20029;-75
2021/01/21 07:51:58;;;;;;;9.23;2.45;;;;;;;;;;5025306;28;20036;-76
2021/01/21 07:54:25;;;;;;;17.67;3.65;;;;;;;;;;5029791;28;20022;-76
2021/01/21 07:56:51;;;;;;;8.43;1.85;;;;;;;;;;5026166;28;20034;-75
2021/01/21 07:59:17;;;;;;;14.50;1.80;;;;;;;;;;5029158;28;20543;-75
2021/01/21 08:01:59;;;;;;;5.28;2.30;;;;;;;;;;5027113;28;20029;-74
2021/01/21 08:04:26;;;;;;;9.23;1.42;;;;;;;;;;5031325;28;20493;-75
2021/01/21 08:06:55;;;;;;;14.48;3.05;;;;;;;;;;5030064;28;20029;-74
2021/01/21 08:09:21;;;;;;;18.98;2.55;;;;;;;;;;5024809;28;20036;-73
2021/01/21 08:11:48;;;;;;;7.65;2.10;;;;;;;;;;5029447;28;20025;-73
2021/01/21 08:14:14;;;;;;;5.90;1.33;;;;;;;;;;5031406;28;20021;-74
2021/01/21 08:16:40;;;;;;;14.82;2.20;;;;;;;;;;5026830;28;20371;-73
2021/01/21 08:19:07;;;;;;;5.85;2.22;;;;;;;;;;5024343;28;20489;-73
2021/01/21 08:21:33;;;;;;;6.20;1.73;;;;;;;;;;5025510;28;20017;-76
2021/01/21 08:24:03;;;;;;;15.68;2.83;;;;;;;;;;5051393;28;20115;-75
2021/01/21 08:26:31;;;;;;;15.10;2.63;;;;;;;;;;5025736;28;20140;-77
2021/01/21 08:28:58;;;;;;;14.25;2.38;;;;;;;;;;5026218;28;20029;-78
2021/01/21 08:31:32;;;;;;;18.75;3.42;;;;;;;;;;5027906;28;20033;-77
2021/01/21 08:33:58;;;;;;;10.70;2.80;;;;;;;;;;5022742;28;20489;-75
2021/01/21 08:36:25;;;;;;;12.32;2.03;;;;;;;;;;5023150;28;20040;-77
2021/01/21 08:38:51;;;;;;;13.65;2.75;;;;;;;;;;5022519;28;20398;-76
2021/01/21 08:41:19;;;;;;;6.80;1.13;;;;;;;;;;5027543;28;20103;-79
2021/01/21 08:43:45;;;;;;;16.10;2.38;;;;;;;;;;5031748;28;20029;-76
2021/01/21 08:46:15;;;;;;;7.57;1.67;;;;;;;;;;5023882;28;20029;-78
2021/01/21 08:48:41;;;;;;;11.50;1.95;;;;;;;;;;5023690;28;20013;-75
2021/01/21 08:51:26;;;;;;;7.35;1.98;;;;;;;;;;5029042;28;20026;-74
2021/01/21 08:53:52;;;;;;;10.63;1.83;;;;;;;;;;5039166;28;20029;-76
2021/01/21 08:56:18;;;;;;;12.50;1.77;;;;;;;;;;5020287;28;20042;-75
2021/01/21 08:58:44;;;;;;;14.05;2.33;;;;;;;;;;5025440;28;20022;-78
2021/01/21 09:01:12;;;;;;;14.70;2.58;;;;;;;;;;5022519;28;20025;-76
2021/01/21 09:03:45;;;;;;;10.85;1.50;;;;;;;;;;5023439;28;20048;-77
2021/01/21 09:06:18;;;;;;;9.65;2.20;;;;;;;;;;5016774;28;20371;-73
2021/01/21 09:08:45;;;;;;;12.13;2.30;;;;;;;;;;5024677;28;20052;-76
2021/01/21 09:11:25;;;;;;;19.83;1.77;;;;;;;;;;5023816;28;20025;-75
2021/01/21 09:13:51;;;;;;;6.53;1.35;;;;;;;;;;5020504;28;20513;-74
2021/01/21 09:16:17;;;;;;;8.80;1.35;;;;;;;;;;5020988;28;20072;-77
2021/01/21 09:18:47;;;;;;;15.73;2.25;;;;;;;;;;5019628;28;20037;-77
2021/01/21 09:21:14;;;;;;;14.43;1.92;;;;;;;;;;5026279;28;20031;-77
2021/01/21 09:23:40;;;;;;;10.35;3.28;;;;;;;;;;5024513;23;20074;-89
2021/01/21 09:26:10;;;;;;;7.80;1.35;;;;;;;;;;4961582;28;20526;-88
2021/01/21 09:28:51;;;;;;;11.57;2.72;;;;;;;;;;4982745;28;20402;-86
2021/01/21 09:31:18;;;;;;;10.70;1.85;;;;;;;;;;4980746;28;20059;-88
2021/01/21 09:33:44;;;;;;;7.38;1.85;;;;;;;;;;4984284;28;20026;-89
2021/01/21 09:36:10;;;;;;;15.10;2.33;;;;;;;;;;4965982;28;20058;-87
2021/01/21 09:38:36;;;;;;;19.73;2.40;;;;;;;;;;4968320;28;20047;-89
2021/01/21 09:41:02;;;;;;;7.78;2.08;;;;;;;;;;4968293;28;20031;-91
2021/01/21 09:43:28;;;;;;;11.63;2.63;;;;;;;;;;4966140;28;20035;-91
2021/01/21 09:45:54;;;;;;;8.02;2.00;;;;;;;;;;4966981;28;20050;-90
2021/01/21 09:48:23;;;;;;;5.90;1.00;;;;;;;;;;4976939;28;20291;-90
2021/01/21 09:50:49;;;;;;;14.05;2.08;;;;;;;;;;4984918;28;20027;-89
2021/01/21 09:53:15;;;;;;;8.85;2.42;;;;;;;;;;4979953;28;20121;-91
2021/01/21 09:55:42;;;;;;;12.98;2.63;;;;;;;;;;4965902;28;20015;-91
2021/01/21 09:58:07;;;;;;;7.22;2.05;;;;;;;;;;4963741;28;20035;-90
2021/01/21 10:00:33;;;;;;;11.82;1.92;;;;;;;;;;4969464;28;20050;-93
2021/01/21 10:03:00;;;;;;;7.60;1.30;;;;;;;;;;4979725;23;20054;-79
2021/01/21 10:05:26;;;;;;;7.47;0.85;;;;;;;;;;4966359;28;20598;-78
2021/01/21 10:07:52;;;;;;;8.85;1.27;;;;;;;;;;4978576;28;20468;-78
2021/01/21 10:10:18;;;;;;;5.47;1.52;;;;;;;;;;4969480;28;20038;-79
2021/01/21 10:12:44;;;;;;;8.85;1.50;;;;;;;;;;4968022;28;20027;-80
2021/01/21 10:15:10;;;;;;;8.25;2.05;;;;;;;;;;4969561;28;20023;-76
2021/01/21 10:17:36;;;;;;;9.27;1.90;;;;;;;;;;4965981;28;20030;-75
2021/01/21 10:20:03;;;;;;;10.60;1.88;;;;;;;;;;4973286;28;20026;-77
2021/01/21 10:22:29;;;;;;;6.70;1.90;;;;;;;;;;4968484;28;20150;-75
2021/01/21 10:24:55;;;;;;;9.68;2.58;;;;;;;;;;4960198;28;20030;-76
2021/01/21 10:27:26;;;;;;;14.82;1.95;;;;;;;;;;4966775;28;20027;-77
2021/01/21 10:29:52;;;;;;;9.20;2.08;;;;;;;;;;4969917;28;20415;-79
2021/01/21 10:32:18;;;;;;;11.90;2.00;;;;;;;;;;4971891;28;20055;-75
2021/01/21 10:34:44;;;;;;;22.35;2.90;;;;;;;;;;4968684;28;20023;-76
2021/01/21 10:37:11;;;;;;;6.88;1.30;;;;;;;;;;4980511;28;20047;-76
2021/01/21 10:39:37;;;;;;;11.60;1.85;;;;;;;;;;4969673;28;20034;-75
2021/01/21 10:42:03;;;;;;;17.77;2.70;;;;;;;;;;4964915;28;20027;-76
2021/01/21 10:44:29;;;;;;;10.57;2.30;;;;;;;;;;4963658;28;20189;-76
2021/01/21 10:46:55;;;;;;;6.97;1.13;;;;;;;;;;4965895;28;20508;-74
2021/01/21 10:49:21;;;;;;;12.02;2.28;;;;;;;;;;4966222;28;20758;-75
2021/01/21 10:51:47;;;;;;;4.88;1.77;;;;;;;;;;4978589;28;20554;-76
2021/01/21 10:54:13;;;;;;;7.85;2.15;;;;;;;;;;4965882;28;20488;-76
2021/01/21 10:56:39;;;;;;;6.88;1.58;;;;;;;;;;4981564;28;20034;-76
2021/01/21 10:59:06;;;;;;;11.05;1.73;;;;;;;;;;4971762;28;20035;-78
2021/01/21 11:01:35;;;;;;;5.65;1.52;;;;;;;;;;4977518;28;20042;-77
2021/01/21 11:04:02;;;;;;;4.05;1.00;;;;;;;;;;4972071;28;20058;-75
2021/01/21 11:06:28;;;;;;;6.60;1.17;;;;;;;;;;4965389;28;20035;-78
2021/01/21 11:08:54;;;;;;;6.57;1.63;;;;;;;;;;4979946;28;20026;-78
2021/01/21 11:11:20;;;;;;;5.03;1.55;;;;;;;;;;4970918;28;20023;-81
2021/01/21 11:13:47;;;;;;;7.45;1.13;;;;;;;;;;4969565;28;20026;-76
2021/01/21 11:16:13;;;;;;;8.02;2.03;;;;;;;;;;4985145;28;20029;-75
2021/01/21 11:18:39;;;;;;;6.05;0.93;;;;;;;;;;4976461;28;20022;-77
2021/01/21 11:21:05;;;;;;;7.25;1.38;;;;;;;;;;4985011;28;20038;-76
2021/01/21 11:23:31;;;;;;;8.07;1.17;;;;;;;;;;4981000;28;20029;-77
2021/01/21 11:25:57;;;;;;;7.80;1.10;;;;;;;;;;4968230;28;20041;-77
2021/01/21 11:28:23;;;;;;;5.78;1.48;;;;;;;;;;4985901;28;20030;-79
2021/01/21 11:30:49;;;;;;;9.10;1.88;;;;;;;;;;4983251;28;20023;-77
2021/01/21 11:33:16;;;;;;;6.97;1.52;;;;;;;;;;4989750;28;20478;-77
2021/01/21 11:35:42;;;;;;;8.07;1.80;;;;;;;;;;4970685;28;20528;-79
2021/01/21 11:38:08;;;;;;;5.70;1.00;;;;;;;;;;4973120;28;20034;-76
2021/01/21 11:40:34;;;;;;;3.35;0.70;;;;;;;;;;4974466;28;20522;-77
2021/01/21 11:43:01;;;;;;;8.90;1.08;;;;;;;;;;4973217;28;20030;-76
2021/01/21 11:45:27;;;;;;;3.88;0.85;;;;;;;;;;4971161;28;20286;-74
2021/01/21 11:47:53;;;;;;;1.92;0.32;;;;;;;;;;4974656;28;20017;-74
2021/01/21 11:50:19;;;;;;;7.07;0.82;;;;;;;;;;4971979;28;20022;-77
2021/01/21 11:52:46;;;;;;;2.83;0.68;;;;;;;;;;4974030;28;20081;-75
2021/01/21 11:55:13;;;;;;;6.40;0.70;;;;;;;;;;4987816;28;20562;-74
2021/01/21 11:57:39;;;;;;;3.83;0.82;;;;;;;;;;4972291;28;20015;-78
2021/01/21 12:00:07;;;;;;;13.85;1.85;;;;;;;;;;4973655;28;20041;-75
2021/01/21 12:02:33;;;;;;;7.75;1.38;;;;;;;;;;4972527;28;20059;-76
2021/01/21 12:04:59;;;;;;;8.80;2.42;;;;;;;;;;4984963;28;20030;-75
2021/01/21 12:07:25;;;;;;;9.85;1.35;;;;;;;;;;4970156;28;20023;-75
2021/01/21 12:09:51;;;;;;;4.38;1.25;;;;;;;;;;4973373;28;20350;-75
2021/01/21 12:12:18;;;;;;;13.52;2.35;;;;;;;;;;4973352;28;20031;-74
2021/01/21 12:14:44;;;;;;;10.93;2.03;;;;;;;;;;4973867;28;20034;-83
2021/01/21 12:17:10;;;;;;;17.10;1.63;;;;;;;;;;4970710;28;20484;-78
2021/01/21 12:19:36;;;;;;;6.13;1.75;;;;;;;;;;4972193;28;20042;-77
2021/01/21 12:22:02;;;;;;;12.27;2.35;;;;;;;;;;4977765;28;20027;-75
2021/01/21 12:24:28;;;;;;;9.25;2.25;;;;;;;;;;4973378;28;20027;-78
2021/01/21 12:26:54;;;;;;;12.52;1.85;;;;;;;;;;4970595;28;20415;-75
2021/01/21 12:29:20;;;;;;;10.15;2.58;;;;;;;;;;4973503;28;20045;-76
2021/01/21 12:31:46;;;;;;;8.38;1.40;;;;;;;;;;4972309;28;20400;-77
2021/01/21 12:34:12;;;;;;;9.98;1.58;;;;;;;;;;4968676;28;20015;-74
2021/01/21 12:36:38;;;;;;;7.22;1.25;;;;;;;;;;4964680;28;20023;-75
2021/01/21 12:39:04;;;;;;;9.70;1.85;;;;;;;;;;4967551;28;20061;-73
2021/01/21 12:41:30;;;;;;;8.82;1.95;;;;;;;;;;4962946;28;20062;-75
2021/01/21 12:43:56;;;;;;;11.93;2.08;;;;;;;;;;4960376;28;20037;-75
2021/01/21 12:46:24;;;;;;;6.93;1.40;;;;;;;;;;4959155;28;20019;-78
2021/01/21 12:48:50;;;;;;;6.13;2.10;;;;;;;;;;4979653;28;20129;-75
2021/01/21 12:51:16;;;;;;;13.98;2.10;;;;;;;;;;4967336;28;20131;-75
2021/01/21 12:53:42;;;;;;;12.95;1.80;;;;;;;;;;4972576;28;20495;-76
2021/01/21 12:56:08;;;;;;;6.43;1.35;;;;;;;;;;4968884;28;20038;-74
2021/01/21 12:58:34;;;;;;;8.35;1.58;;;;;;;;;;4972316;28;20037;-74
2021/01/21 13:01:00;;;;;;;6.43;1.77;;;;;;;;;;4979163;28;20026;-75
2021/01/21 13:03:27;;;;;;;7.53;1.83;;;;;;;;;;4969885;28;20050;-76
2021/01/21 13:05:53;;;;;;;12.93;1.92;;;;;;;;;;4958316;28;20019;-77
2021/01/21 13:08:19;;;;;;;10.50;2.22;;;;;;;;;;4966139;28;20031;-77
2021/01/21 13:10:45;;;;;;;16.40;2.05;;;;;;;;;;4972908;28;20038;-72
2021/01/21 13:13:13;;;;;;;7.00;1.73;;;;;;;;;;4963060;28;20476;-74
2021/01/21 13:15:39;;;;;;;7.22;2.08;;;;;;;;;;4956490;28;20034;-76
2021/01/21 13:18:05;;;;;;;7.63;1.80;;;;;;;;;;4967627;28;20045;-73
2021/01/21 13:20:31;;;;;;;11.68;1.55;;;;;;;;;;4981286;28;20479;-74
2021/01/21 13:22:57;;;;;;;5.32;1.00;;;;;;;;;;4970547;28;20045;-74
2021/01/21 13:25:23;;;;;;;10.60;1.33;;;;;;;;;;4959156;28;20704;-74
2021/01/21 13:27:49;;;;;;;17.35;1.55;;;;;;;;;;4965142;28;20512;-73
2021/01/21 13:30:16;;;;;;;9.45;2.00;;;;;;;;;;4975426;28;20061;-74
2021/01/21 13:32:42;;;;;;;16.15;3.10;;;;;;;;;;4966990;28;20097;-74
2021/01/21 13:35:08;;;;;;;12.75;3.00;;;;;;;;;;4967671;28;20035;-75
2021/01/21 13:37:34;;;;;;;11.45;1.73;;;;;;;;;;4981941;28;20365;-71
2021/01/21 13:40:00;;;;;;;7.05;1.52;;;;;;;;;;4966557;28;20053;-71
2021/01/21 13:42:27;;;;;;;12.32;1.98;;;;;;;;;;4969825;28;20023;-73
2021/01/21 13:44:53;;;;;;;14.05;2.55;;;;;;;;;;4969331;28;20545;-76
2021/01/21 13:47:20;;;;;;;13.02;1.40;;;;;;;;;;4967863;28;20108;-76
2021/01/21 13:49:46;;;;;;;5.63;1.75;;;;;;;;;;4969532;28;20029;-74
2021/01/21 13:52:12;;;;;;;11.32;1.08;;;;;;;;;;4976600;28;20121;-72
2021/01/21 13:54:38;;;;;;;7.85;1.40;;;;;;;;;;4983493;28;20041;-74
2021/01/21 13:57:04;;;;;;;9.52;1.55;;;;;;;;;;4991627;28;20023;-73
2021/01/21 13:59:30;;;;;;;16.33;2.53;;;;;;;;;;4969757;28;20030;-75
2021/01/21 14:01:56;;;;;;;16.05;2.83;;;;;;;;;;4977606;28;20050;-75
2021/01/21 14:04:22;;;;;;;9.73;1.55;;;;;;;;;;4966395;28;20042;-75
2021/01/21 14:06:48;;;;;;;10.68;1.80;;;;;;;;;;4962761;28;20042;-76
2021/01/21 14:09:14;;;;;;;15.10;2.28;;;;;;;;;;4970229;28;20035;-74
2021/01/21 14:11:40;;;;;;;12.30;1.48;;;;;;;;;;4965575;28;20023;-74
2021/01/21 14:14:06;;;;;;;3.78;1.08;;;;;;;;;;4973596;28;20034;-73
2021/01/21 14:16:32;;;;;;;12.32;2.15;;;;;;;;;;4963144;28;20053;-75
2021/01/21 14:18:58;;;;;;;15.32;3.35;;;;;;;;;;4968979;28;20109;-75
2021/01/21 14:21:24;;;;;;;8.38;1.90;;;;;;;;;;4968843;28;20030;-75
2021/01/21 14:23:50;;;;;;;13.80;2.45;;;;;;;;;;4970474;28;20543;-76
2021/01/21 14:26:16;;;;;;;19.48;2.38;;;;;;;;;;4971347;28;20035;-76
2021/01/21 14:28:42;;;;;;;8.45;2.40;;;;;;;;;;4971259;28;20278;-75
2021/01/21 14:31:08;;;;;;;12.20;2.65;;;;;;;;;;4960754;28;20118;-74
2021/01/21 14:33:34;;;;;;;9.05;1.40;;;;;;;;;;4963228;28;20027;-75
2021/01/21 14:36:00;;;;;;;11.32;1.63;;;;;;;;;;4978671;28;21318;-76